sensor_id;sensor_type;location;lat;lon;timestamp;pressure;altitude;pressure_sealevel;temperature;humidity
65546;BME280;52177;55.968;37.498;2023-08-06T00:00:07;100021.63;;;20.69;76.85
65546;BME280;52177;55.968;37.498;2023-08-06T00:00:38;100016.44;;;20.68;76.97
65546;BME280;52177;55.968;37.498;2023-08-06T00:01:09;100014.56;;;20.68;77.00
65546;BME280;52177;55.968;37.498;2023-08-06T00:01:39;100016.44;;;20.68;77.33
65546;BME280;52177;55.968;37.498;2023-08-06T00:02:09;100019.16;;;20.68;77.34
65546;BME280;52177;55.968;37.498;2023-08-06T00:02:42;100017.50;;;20.66;77.39
65546;BME280;52177;55.968;37.498;2023-08-06T00:03:13;100018.31;;;20.67;77.34
65546;BME280;52177;55.968;37.498;2023-08-06T00:03:43;100016.69;;;20.66;77.57
65546;BME280;52177;55.968;37.498;2023-08-06T00:04:13;100020.19;;;20.66;77.46
65546;BME280;52177;55.968;37.498;2023-08-06T00:04:44;100014.78;;;20.66;77.53
65546;BME280;52177;55.968;37.498;2023-08-06T00:05:14;100018.31;;;20.67;77.32
65546;BME280;52177;55.968;37.498;2023-08-06T00:05:48;100019.16;;;20.68;77.69
65546;BME280;52177;55.968;37.498;2023-08-06T00:06:18;100021.03;;;20.67;77.64
65546;BME280;52177;55.968;37.498;2023-08-06T00:06:48;100021.03;;;20.67;77.67
65546;BME280;52177;55.968;37.498;2023-08-06T00:07:19;100017.50;;;20.66;77.55
65546;BME280;52177;55.968;37.498;2023-08-06T00:07:50;100020.19;;;20.66;77.24
65546;BME280;52177;55.968;37.498;2023-08-06T00:08:20;100021.28;;;20.65;77.47
65546;BME280;52177;55.968;37.498;2023-08-06T00:08:51;100015.03;;;20.65;77.51
65546;BME280;52177;55.968;37.498;2023-08-06T00:09:21;100009.63;;;20.65;77.46
65546;BME280;52177;55.968;37.498;2023-08-06T00:09:51;100009.03;;;20.63;77.63
65546;BME280;52177;55.968;37.498;2023-08-06T00:10:22;100018.19;;;20.62;77.47
65546;BME280;52177;55.968;37.498;2023-08-06T00:10:52;100015.75;;;20.60;77.66
65546;BME280;52177;55.968;37.498;2023-08-06T00:11:22;100013.84;;;20.61;77.63
65546;BME280;52177;55.968;37.498;2023-08-06T00:11:53;100017.59;;;20.60;77.53
65546;BME280;52177;55.968;37.498;2023-08-06T00:12:23;100012.19;;;20.60;77.73
65546;BME280;52177;55.968;37.498;2023-08-06T00:12:53;100013.03;;;20.60;77.61
65546;BME280;52177;55.968;37.498;2023-08-06T00:13:24;100014.88;;;20.60;77.53
65546;BME280;52177;55.968;37.498;2023-08-06T00:13:54;100013.03;;;20.60;77.47
65546;BME280;52177;55.968;37.498;2023-08-06T00:14:24;100021.16;;;20.60;77.59
65546;BME280;52177;55.968;37.498;2023-08-06T00:14:55;100012.19;;;20.60;77.43
65546;BME280;52177;55.968;37.498;2023-08-06T00:15:25;100014.88;;;20.60;77.37
65546;BME280;52177;55.968;37.498;2023-08-06T00:15:56;100010.31;;;20.60;77.37
65546;BME280;52177;55.968;37.498;2023-08-06T00:16:26;100009.25;;;20.61;77.61
65546;BME280;52177;55.968;37.498;2023-08-06T00:16:56;100017.38;;;20.61;77.37
65546;BME280;52177;55.968;37.498;2023-08-06T00:17:26;100014.88;;;20.60;77.61
65546;BME280;52177;55.968;37.498;2023-08-06T00:17:57;100016.56;;;20.61;77.71
65546;BME280;52177;55.968;37.498;2023-08-06T00:18:27;100017.38;;;20.61;77.75
65546;BME280;52177;55.968;37.498;2023-08-06T00:18:57;100016.56;;;20.61;77.50
65546;BME280;52177;55.968;37.498;2023-08-06T00:19:28;100009.25;;;20.61;77.49
65546;BME280;52177;55.968;37.498;2023-08-06T00:19:58;100013.59;;;20.62;77.59
65546;BME280;52177;55.968;37.498;2023-08-06T00:20:34;100014.44;;;20.63;77.75
65546;BME280;52177;55.968;37.498;2023-08-06T00:21:04;100017.97;;;20.63;77.91
65546;BME280;52177;55.968;37.498;2023-08-06T00:21:35;100012.56;;;20.63;78.03
65546;BME280;52177;55.968;37.498;2023-08-06T00:22:05;100011.72;;;20.63;78.14
65546;BME280;52177;55.968;37.498;2023-08-06T00:22:37;100009.84;;;20.63;78.04
65546;BME280;52177;55.968;37.498;2023-08-06T00:23:08;100015.25;;;20.63;77.99
65546;BME280;52177;55.968;37.498;2023-08-06T00:23:39;100013.59;;;20.62;77.93
65546;BME280;52177;55.968;37.498;2023-08-06T00:24:10;100011.97;;;20.61;78.04
65546;BME280;52177;55.968;37.498;2023-08-06T00:24:40;100012.78;;;20.62;77.93
65546;BME280;52177;55.968;37.498;2023-08-06T00:25:10;100012.78;;;20.62;77.74
65546;BME280;52177;55.968;37.498;2023-08-06T00:25:41;100016.31;;;20.62;77.84
65546;BME280;52177;55.968;37.498;2023-08-06T00:26:11;100010.88;;;20.62;77.79
65546;BME280;52177;55.968;37.498;2023-08-06T00:26:41;100013.59;;;20.62;77.75
65546;BME280;52177;55.968;37.498;2023-08-06T00:27:12;100009.03;;;20.63;77.85
65546;BME280;52177;55.968;37.498;2023-08-06T00:27:42;100010.66;;;20.64;77.64
65546;BME280;52177;55.968;37.498;2023-08-06T00:28:12;100013.59;;;20.62;77.80
65546;BME280;52177;55.968;37.498;2023-08-06T00:28:42;100013.38;;;20.64;77.77
65546;BME280;52177;55.968;37.498;2023-08-06T00:29:13;100016.31;;;20.62;77.75
65546;BME280;52177;55.968;37.498;2023-08-06T00:29:43;100017.16;;;20.63;77.96
65546;BME280;52177;55.968;37.498;2023-08-06T00:30:13;100016.31;;;20.62;77.72
65546;BME280;52177;55.968;37.498;2023-08-06T00:30:44;100017.97;;;20.63;77.83
65546;BME280;52177;55.968;37.498;2023-08-06T00:31:14;100015.25;;;20.63;77.95
65546;BME280;52177;55.968;37.498;2023-08-06T00:31:44;100016.09;;;20.64;77.93
65546;BME280;52177;55.968;37.498;2023-08-06T00:32:15;100024.22;;;20.64;77.80
65546;BME280;52177;55.968;37.498;2023-08-06T00:32:45;100022.31;;;20.64;78.10
65546;BME280;52177;55.968;37.498;2023-08-06T00:33:15;100020.69;;;20.63;78.02
65546;BME280;52177;55.968;37.498;2023-08-06T00:33:46;100018.56;;;20.65;78.07
65546;BME280;52177;55.968;37.498;2023-08-06T00:34:16;100023.97;;;20.65;77.85
65546;BME280;52177;55.968;37.498;2023-08-06T00:34:46;100022.91;;;20.66;77.61
65546;BME280;52177;55.968;37.498;2023-08-06T00:35:19;100017.25;;;20.68;77.79
65546;BME280;52177;55.968;37.498;2023-08-06T00:35:50;100023.50;;;20.69;77.72
65546;BME280;52177;55.968;37.498;2023-08-06T00:36:20;100021.03;;;20.67;77.36
65546;BME280;52177;55.968;37.498;2023-08-06T00:36:50;100025.41;;;20.68;77.66
65546;BME280;52177;55.968;37.498;2023-08-06T00:37:21;100022.91;;;20.66;77.65
65546;BME280;52177;55.968;37.498;2023-08-06T00:37:51;100028.31;;;20.66;77.73
65546;BME280;52177;55.968;37.498;2023-08-06T00:38:21;100020.47;;;20.65;77.29
65546;BME280;52177;55.968;37.498;2023-08-06T00:38:52;100026.91;;;20.64;77.29
65546;BME280;52177;55.968;37.498;2023-08-06T00:39:22;100023.63;;;20.62;77.24
65546;BME280;52177;55.968;37.498;2023-08-06T00:39:53;100021.16;;;20.60;77.50
65546;BME280;52177;55.968;37.498;2023-08-06T00:40:23;100024.09;;;20.59;77.34
65546;BME280;52177;55.968;37.498;2023-08-06T00:40:53;100026.19;;;20.57;77.55
65546;BME280;52177;55.968;37.498;2023-08-06T00:41:24;100024.56;;;20.56;77.61
65546;BME280;52177;55.968;37.498;2023-08-06T00:41:54;100022.06;;;20.54;77.56
65546;BME280;52177;55.968;37.498;2023-08-06T00:42:24;100022.06;;;20.54;77.63
65546;BME280;52177;55.968;37.498;2023-08-06T00:42:55;100021.47;;;20.52;77.74
65546;BME280;52177;55.968;37.498;2023-08-06T00:43:25;100024.97;;;20.53;77.56
65546;BME280;52177;55.968;37.498;2023-08-06T00:43:56;100020.63;;;20.52;77.51
65546;BME280;52177;55.968;37.498;2023-08-06T00:44:26;100024.16;;;20.52;77.47
65546;BME280;52177;55.968;37.498;2023-08-06T00:44:56;100019.81;;;20.51;77.56
65546;BME280;52177;55.968;37.498;2023-08-06T00:45:27;100023.34;;;20.52;77.55
65546;BME280;52177;55.968;37.498;2023-08-06T00:46:00;100021.69;;;20.51;77.45
65546;BME280;52177;55.968;37.498;2023-08-06T00:46:31;100032.50;;;20.51;77.48
65546;BME280;52177;55.968;37.498;2023-08-06T00:47:03;100030.88;;;20.50;77.45
65546;BME280;52177;55.968;37.498;2023-08-06T00:47:33;100027.34;;;20.49;77.58
65546;BME280;52177;55.968;37.498;2023-08-06T00:48:05;100031.09;;;20.48;77.39
65546;BME280;52177;55.968;37.498;2023-08-06T00:48:36;100026.75;;;20.47;77.50
65546;BME280;52177;55.968;37.498;2023-08-06T00:49:06;100032.19;;;20.47;77.54
65546;BME280;52177;55.968;37.498;2023-08-06T00:49:38;100035.09;;;20.45;77.49
65546;BME280;52177;55.968;37.498;2023-08-06T00:50:09;100027.22;;;20.44;77.44
65546;BME280;52177;55.968;37.498;2023-08-06T00:50:39;100030.16;;;20.42;77.55
65546;BME280;52177;55.968;37.498;2023-08-06T00:51:10;100030.38;;;20.41;77.60
65546;BME280;52177;55.968;37.498;2023-08-06T00:51:42;100036.06;;;20.39;77.53
65546;BME280;52177;55.968;37.498;2023-08-06T00:52:13;100030.84;;;20.38;77.53
65546;BME280;52177;55.968;37.498;2023-08-06T00:52:44;100036.88;;;20.40;77.53
65546;BME280;52177;55.968;37.498;2023-08-06T00:53:14;100033.34;;;20.39;77.57
65546;BME280;52177;55.968;37.498;2023-08-06T00:53:45;100032.50;;;20.39;77.51
65546;BME280;52177;55.968;37.498;2023-08-06T00:54:15;100040.63;;;20.39;77.62
65546;BME280;52177;55.968;37.498;2023-08-06T00:54:46;100034.38;;;20.38;77.63
65546;BME280;52177;55.968;37.498;2023-08-06T00:55:16;100030.03;;;20.37;77.74
65546;BME280;52177;55.968;37.498;2023-08-06T00:55:47;100028.38;;;20.36;77.56
65546;BME280;52177;55.968;37.498;2023-08-06T00:56:17;100030.25;;;20.36;77.47
65546;BME280;52177;55.968;37.498;2023-08-06T00:56:49;100024.03;;;20.35;77.65
65546;BME280;52177;55.968;37.498;2023-08-06T00:57:20;100032.16;;;20.35;77.57
65546;BME280;52177;55.968;37.498;2023-08-06T00:57:54;100029.66;;;20.34;77.62
65546;BME280;52177;55.968;37.498;2023-08-06T00:58:26;100033.44;;;20.33;77.61
65546;BME280;52177;55.968;37.498;2023-08-06T00:58:56;100029.91;;;20.32;77.63
65546;BME280;52177;55.968;37.498;2023-08-06T00:59:27;100030.16;;;20.31;77.50
65546;BME280;52177;55.968;37.498;2023-08-06T00:59:58;100024.72;;;20.31;77.75
65546;BME280;52177;55.968;37.498;2023-08-06T01:00:29;100025.78;;;20.30;77.51
65546;BME280;52177;55.968;37.498;2023-08-06T01:00:59;100028.47;;;20.30;77.71
65546;BME280;52177;55.968;37.498;2023-08-06T01:01:30;100030.63;;;20.28;77.79
65546;BME280;52177;55.968;37.498;2023-08-06T01:02:00;100035.19;;;20.27;77.72
65546;BME280;52177;55.968;37.498;2023-08-06T01:02:31;100030.63;;;20.28;77.51
65546;BME280;52177;55.968;37.498;2023-08-06T01:03:01;100029.78;;;20.27;77.53
65546;BME280;52177;55.968;37.498;2023-08-06T01:03:31;100033.31;;;20.28;77.50
65546;BME280;52177;55.968;37.498;2023-08-06T01:04:02;100030.03;;;20.26;77.54
65546;BME280;52177;55.968;37.498;2023-08-06T01:04:32;100023.75;;;20.25;77.63
65546;BME280;52177;55.968;37.498;2023-08-06T01:05:04;100030.03;;;20.26;77.54
65546;BME280;52177;55.968;37.498;2023-08-06T01:05:34;100031.88;;;20.25;77.61
65546;BME280;52177;55.968;37.498;2023-08-06T01:06:05;100024.00;;;20.23;77.67
65546;BME280;52177;55.968;37.498;2023-08-06T01:07:15;100032.34;;;20.22;77.47
65546;BME280;52177;55.968;37.498;2023-08-06T01:08:09;100035.53;;;20.19;77.80
65546;BME280;52177;55.968;37.498;2023-08-06T01:09:05;100028.69;;;20.16;77.80
65546;BME280;52177;55.968;37.498;2023-08-06T01:09:47;100026.22;;;20.15;77.88
65546;BME280;52177;55.968;37.498;2023-08-06T01:11:39;100036.44;;;20.13;78.20
65546;BME280;52177;55.968;37.498;2023-08-06T01:14:06;100035.84;;;20.11;77.99
65546;BME280;52177;55.968;37.498;2023-08-06T01:14:50;100033.41;;;20.09;78.05
65546;BME280;52177;55.968;37.498;2023-08-06T01:15:29;100030.69;;;20.09;77.94
65546;BME280;52177;55.968;37.498;2023-08-06T01:16:01;100023.59;;;20.08;77.83
65546;BME280;52177;55.968;37.498;2023-08-06T01:16:33;100033.59;;;20.08;77.97
65546;BME280;52177;55.968;37.498;2023-08-06T01:17:04;100031.72;;;20.08;77.99
65546;BME280;52177;55.968;37.498;2023-08-06T01:17:36;100032.53;;;20.09;77.98
65546;BME280;52177;55.968;37.498;2023-08-06T01:18:06;100029.03;;;20.08;77.74
65546;BME280;52177;55.968;37.498;2023-08-06T01:18:37;100027.13;;;20.09;78.00
65546;BME280;52177;55.968;37.498;2023-08-06T01:19:19;100031.72;;;20.08;77.87
65546;BME280;52177;55.968;37.498;2023-08-06T01:19:49;100025.72;;;20.06;77.98
65546;BME280;52177;55.968;37.498;2023-08-06T01:20:20;100027.38;;;20.07;77.97
65546;BME280;52177;55.968;37.498;2023-08-06T01:20:50;100026.56;;;20.07;77.90
65546;BME280;52177;55.968;37.498;2023-08-06T01:21:20;100032.78;;;20.07;77.65
65546;BME280;52177;55.968;37.498;2023-08-06T01:21:51;100026.56;;;20.07;77.69
65546;BME280;52177;55.968;37.498;2023-08-06T01:22:21;100025.72;;;20.06;77.85
65546;BME280;52177;55.968;37.498;2023-08-06T01:22:51;100027.38;;;20.07;77.73
65546;BME280;52177;55.968;37.498;2023-08-06T01:23:22;100034.69;;;20.07;77.69
65546;BME280;52177;55.968;37.498;2023-08-06T01:23:53;100027.38;;;20.07;77.76
65546;BME280;52177;55.968;37.498;2023-08-06T01:24:24;100028.41;;;20.06;77.72
65546;BME280;52177;55.968;37.498;2023-08-06T01:24:54;100028.19;;;20.08;77.68
65546;BME280;52177;55.968;37.498;2023-08-06T01:25:41;100033.22;;;20.04;77.90
65546;BME280;52177;55.968;37.498;2023-08-06T01:27:38;100022.53;;;19.97;78.01
65546;BME280;52177;55.968;37.498;2023-08-06T01:28:25;100025.94;;;19.93;78.11
65546;BME280;52177;55.968;37.498;2023-08-06T01:30:12;100023.31;;;19.86;78.70
65546;BME280;52177;55.968;37.498;2023-08-06T01:30:45;100035.16;;;19.85;78.68
65546;BME280;52177;55.968;37.498;2023-08-06T01:31:27;100031.66;;;19.85;78.63
65546;BME280;52177;55.968;37.498;2023-08-06T01:31:59;100035.41;;;19.84;78.75
65546;BME280;52177;55.968;37.498;2023-08-06T01:32:34;100022.94;;;19.82;78.83
65546;BME280;52177;55.968;37.498;2023-08-06T01:33:05;100034.00;;;19.81;78.55
65546;BME280;52177;55.968;37.498;2023-08-06T01:33:42;100027.16;;;19.78;78.83
65546;BME280;52177;55.968;37.498;2023-08-06T01:34:17;100033.84;;;19.76;79.12
65546;BME280;52177;55.968;37.498;2023-08-06T01:34:50;100034.91;;;19.75;79.06
65546;BME280;52177;55.968;37.498;2023-08-06T01:35:21;100039.84;;;19.78;79.07
65546;BME280;52177;55.968;37.498;2023-08-06T01:35:53;100033.84;;;19.76;79.22
65546;BME280;52177;55.968;37.498;2023-08-06T01:36:25;100037.38;;;19.76;79.10
65546;BME280;52177;55.968;37.498;2023-08-06T01:36:56;100032.78;;;19.77;78.86
65546;BME280;52177;55.968;37.498;2023-08-06T01:37:27;100029.03;;;19.78;79.08
65546;BME280;52177;55.968;37.498;2023-08-06T01:37:59;100039.63;;;19.79;78.85
65546;BME280;52177;55.968;37.498;2023-08-06T01:38:30;100038.56;;;19.80;78.97
65546;BME280;52177;55.968;37.498;2023-08-06T01:39:01;100035.63;;;19.82;78.71
65546;BME280;52177;55.968;37.498;2023-08-06T01:39:34;100041.88;;;19.82;78.65
65546;BME280;52177;55.968;37.498;2023-08-06T01:40:12;100047.28;;;19.82;78.67
65546;BME280;52177;55.968;37.498;2023-08-06T01:40:43;100039.41;;;19.81;79.00
65546;BME280;52177;55.968;37.498;2023-08-06T01:41:13;100047.28;;;19.82;78.77
65546;BME280;52177;55.968;37.498;2023-08-06T01:41:44;100043.53;;;19.84;78.52
65546;BME280;52177;55.968;37.498;2023-08-06T01:42:14;100047.88;;;19.85;78.50
65546;BME280;52177;55.968;37.498;2023-08-06T01:42:44;100046.00;;;19.85;78.32
65546;BME280;52177;55.968;37.498;2023-08-06T01:43:14;100049.53;;;19.86;78.43
65546;BME280;52177;55.968;37.498;2023-08-06T01:43:45;100045.16;;;19.85;78.47
65546;BME280;52177;55.968;37.498;2023-08-06T01:44:16;100050.59;;;19.85;78.37
65546;BME280;52177;55.968;37.498;2023-08-06T01:44:46;100048.94;;;19.84;78.25
65546;BME280;52177;55.968;37.498;2023-08-06T01:45:16;100049.75;;;19.84;78.60
65546;BME280;52177;55.968;37.498;2023-08-06T01:45:47;100039.41;;;19.81;78.50
65546;BME280;52177;55.968;37.498;2023-08-06T01:46:17;100042.56;;;19.78;78.80
65546;BME280;52177;55.968;37.498;2023-08-06T01:46:48;100047.13;;;19.77;78.79
65546;BME280;52177;55.968;37.498;2023-08-06T01:47:18;100041.94;;;19.76;78.87
65546;BME280;52177;55.968;37.498;2023-08-06T01:47:48;100046.53;;;19.75;79.06
65546;BME280;52177;55.968;37.498;2023-08-06T01:48:19;100044.91;;;19.74;79.06
65546;BME280;52177;55.968;37.498;2023-08-06T01:48:49;100045.72;;;19.75;79.06
65546;BME280;52177;55.968;37.498;2023-08-06T01:49:19;100050.31;;;19.74;79.24
65546;BME280;52177;55.968;37.498;2023-08-06T01:49:50;100042.41;;;19.73;79.12
65546;BME280;52177;55.968;37.498;2023-08-06T01:50:20;100049.50;;;19.74;79.21
65546;BME280;52177;55.968;37.498;2023-08-06T01:50:50;100045.94;;;19.73;79.06
65546;BME280;52177;55.968;37.498;2023-08-06T01:51:21;100037.00;;;19.73;79.23
65546;BME280;52177;55.968;37.498;2023-08-06T01:51:51;100047.81;;;19.73;79.08
65546;BME280;52177;55.968;37.498;2023-08-06T01:52:21;100045.72;;;19.75;79.06
65546;BME280;52177;55.968;37.498;2023-08-06T01:52:51;100044.91;;;19.74;78.92
65546;BME280;52177;55.968;37.498;2023-08-06T01:53:22;100051.13;;;19.75;79.14
65546;BME280;52177;55.968;37.498;2023-08-06T01:53:52;100048.44;;;19.75;79.22
65546;BME280;52177;55.968;37.498;2023-08-06T01:54:22;100046.53;;;19.75;78.92
65546;BME280;52177;55.968;37.498;2023-08-06T01:54:53;100050.91;;;19.76;79.14
65546;BME280;52177;55.968;37.498;2023-08-06T01:55:24;100047.13;;;19.77;79.19
65546;BME280;52177;55.968;37.498;2023-08-06T01:55:54;100050.91;;;19.76;79.13
65546;BME280;52177;55.968;37.498;2023-08-06T01:56:24;100048.22;;;19.76;79.17
65546;BME280;52177;55.968;37.498;2023-08-06T01:56:55;100049.25;;;19.75;79.05
65546;BME280;52177;55.968;37.498;2023-08-06T01:57:25;100052.78;;;19.76;79.21
65546;BME280;52177;55.968;37.498;2023-08-06T01:57:55;100051.34;;;19.73;79.14
65546;BME280;52177;55.968;37.498;2023-08-06T01:58:26;100054.06;;;19.73;79.45
65546;BME280;52177;55.968;37.498;2023-08-06T01:58:56;100059.25;;;19.75;79.16
65546;BME280;52177;55.968;37.498;2023-08-06T01:59:26;100063.84;;;19.74;79.55
65546;BME280;52177;55.968;37.498;2023-08-06T01:59:57;100057.59;;;19.74;79.42
65546;BME280;52177;55.968;37.498;2023-08-06T02:00:27;100061.94;;;19.75;79.44
65546;BME280;52177;55.968;37.498;2023-08-06T02:00:59;100060.06;;;19.75;79.33
65546;BME280;52177;55.968;37.498;2023-08-06T02:01:29;100063.59;;;19.76;79.37
65546;BME280;52177;55.968;37.498;2023-08-06T02:02:00;100062.78;;;19.75;79.21
65546;BME280;52177;55.968;37.498;2023-08-06T02:02:30;100067.16;;;19.76;79.19
65546;BME280;52177;55.968;37.498;2023-08-06T02:03:00;100067.97;;;19.77;79.29
65546;BME280;52177;55.968;37.498;2023-08-06T02:03:31;100061.72;;;19.76;79.33
65546;BME280;52177;55.968;37.498;2023-08-06T02:04:01;100065.25;;;19.77;79.41
65546;BME280;52177;55.968;37.498;2023-08-06T02:04:31;100063.97;;;19.79;79.42
65546;BME280;52177;55.968;37.498;2023-08-06T02:05:02;100056.06;;;19.78;79.34
65546;BME280;52177;55.968;37.498;2023-08-06T02:05:32;100070.19;;;19.80;79.25
65546;BME280;52177;55.968;37.498;2023-08-06T02:06:02;100063.97;;;19.79;79.27
65546;BME280;52177;55.968;37.498;2023-08-06T02:06:33;100070.00;;;19.81;79.47
65546;BME280;52177;55.968;37.498;2023-08-06T02:07:03;100056.25;;;19.83;79.18
65546;BME280;52177;55.968;37.498;2023-08-06T02:07:34;100056.00;;;19.85;79.10
65546;BME280;52177;55.968;37.498;2023-08-06T02:08:04;100063.88;;;19.86;79.33
65546;BME280;52177;55.968;37.498;2023-08-06T02:08:34;100063.06;;;19.86;79.19
65546;BME280;52177;55.968;37.498;2023-08-06T02:09:05;100060.94;;;19.88;79.13
65546;BME280;52177;55.968;37.498;2023-08-06T02:09:35;100062.59;;;19.89;79.26
65546;BME280;52177;55.968;37.498;2023-08-06T02:10:06;100062.59;;;19.89;79.13
65546;BME280;52177;55.968;37.498;2023-08-06T02:10:36;100059.69;;;19.90;79.08
65546;BME280;52177;55.968;37.498;2023-08-06T02:11:07;100062.97;;;19.92;79.19
65546;BME280;52177;55.968;37.498;2023-08-06T02:11:37;100061.09;;;19.93;79.17
65546;BME280;52177;55.968;37.498;2023-08-06T02:12:07;100064.63;;;19.93;79.07
65546;BME280;52177;55.968;37.498;2023-08-06T02:12:38;100061.69;;;19.95;79.31
65546;BME280;52177;55.968;37.498;2023-08-06T02:13:08;100059.00;;;19.95;79.29
65546;BME280;52177;55.968;37.498;2023-08-06T02:13:39;100059.00;;;19.95;79.27
65546;BME280;52177;55.968;37.498;2023-08-06T02:14:09;100061.44;;;19.96;79.09
65546;BME280;52177;55.968;37.498;2023-08-06T02:14:39;100063.34;;;19.96;79.13
65546;BME280;52177;55.968;37.498;2023-08-06T02:15:10;100058.75;;;19.96;79.31
65546;BME280;52177;55.968;37.498;2023-08-06T02:15:44;100062.28;;;19.97;79.43
65546;BME280;52177;55.968;37.498;2023-08-06T02:16:15;100062.28;;;19.97;79.28
65546;BME280;52177;55.968;37.498;2023-08-06T02:16:45;100063.13;;;19.97;79.34
65546;BME280;52177;55.968;37.498;2023-08-06T02:17:15;100060.16;;;19.99;79.32
65546;BME280;52177;55.968;37.498;2023-08-06T02:17:46;100066.19;;;20.01;79.25
65546;BME280;52177;55.968;37.498;2023-08-06T02:18:16;100052.03;;;19.99;79.23
65546;BME280;52177;55.968;37.498;2023-08-06T02:18:46;100061.84;;;20.00;79.07
65546;BME280;52177;55.968;37.498;2023-08-06T02:19:17;100056.16;;;20.01;79.02
65546;BME280;52177;55.968;37.498;2023-08-06T02:19:47;100057.03;;;20.02;79.09
65546;BME280;52177;55.968;37.498;2023-08-06T02:20:17;100057.84;;;20.02;79.29
65546;BME280;52177;55.968;37.498;2023-08-06T02:20:58;100056.16;;;20.01;79.28
65546;BME280;52177;55.968;37.498;2023-08-06T02:21:28;100067.84;;;20.02;79.39
65546;BME280;52177;55.968;37.498;2023-08-06T02:21:59;100057.84;;;20.02;79.46
65546;BME280;52177;55.968;37.498;2023-08-06T02:22:29;100063.00;;;20.04;79.52
65546;BME280;52177;55.968;37.498;2023-08-06T02:23:00;100059.47;;;20.03;79.31
65546;BME280;52177;55.968;37.498;2023-08-06T02:23:30;100061.16;;;20.05;79.36
65546;BME280;52177;55.968;37.498;2023-08-06T02:24:00;100065.72;;;20.04;79.45
65546;BME280;52177;55.968;37.498;2023-08-06T02:24:31;100057.38;;;20.06;79.40
65546;BME280;52177;55.968;37.498;2023-08-06T02:25:01;100057.38;;;20.06;79.44
65546;BME280;52177;55.968;37.498;2023-08-06T02:25:31;100057.38;;;20.06;79.33
65546;BME280;52177;55.968;37.498;2023-08-06T02:26:03;100060.47;;;20.09;79.60
65546;BME280;52177;55.968;37.498;2023-08-06T02:26:34;100062.31;;;20.09;79.42
65546;BME280;52177;55.968;37.498;2023-08-06T02:27:04;100064.81;;;20.10;79.44
65546;BME280;52177;55.968;37.498;2023-08-06T02:27:35;100061.06;;;20.11;79.34
65546;BME280;52177;55.968;37.498;2023-08-06T02:28:05;100063.50;;;20.13;79.46
65546;BME280;52177;55.968;37.498;2023-08-06T02:28:35;100065.19;;;20.14;79.47
65546;BME280;52177;55.968;37.498;2023-08-06T02:29:06;100064.13;;;20.15;79.34
65546;BME280;52177;55.968;37.498;2023-08-06T02:29:36;100058.47;;;20.16;79.20
65546;BME280;52177;55.968;37.498;2023-08-06T02:30:07;100059.28;;;20.17;79.35
65546;BME280;52177;55.968;37.498;2023-08-06T02:30:37;100060.13;;;20.17;79.37
65546;BME280;52177;55.968;37.498;2023-08-06T02:31:07;100061.78;;;20.18;79.14
65546;BME280;52177;55.968;37.498;2023-08-06T02:31:38;100059.06;;;20.18;79.25
65546;BME280;52177;55.968;37.498;2023-08-06T02:32:08;100057.78;;;20.21;79.42
65546;BME280;52177;55.968;37.498;2023-08-06T02:32:38;100066.72;;;20.21;79.32
65546;BME280;52177;55.968;37.498;2023-08-06T02:33:09;100062.13;;;20.22;79.58
65546;BME280;52177;55.968;37.498;2023-08-06T02:33:39;100064.84;;;20.22;79.34
65546;BME280;52177;55.968;37.498;2023-08-06T02:34:09;100061.91;;;20.23;79.51
65546;BME280;52177;55.968;37.498;2023-08-06T02:34:39;100060.84;;;20.24;79.49
65546;BME280;52177;55.968;37.498;2023-08-06T02:35:10;100062.50;;;20.26;79.62
65546;BME280;52177;55.968;37.498;2023-08-06T02:35:40;100065.81;;;20.28;79.56
65546;BME280;52177;55.968;37.498;2023-08-06T02:36:11;100070.75;;;20.31;79.62
65546;BME280;52177;55.968;37.498;2023-08-06T02:36:41;100062.41;;;20.32;79.69
65546;BME280;52177;55.968;37.498;2023-08-06T02:37:11;100063.22;;;20.33;79.62
65546;BME280;52177;55.968;37.498;2023-08-06T02:37:41;100064.88;;;20.34;79.77
65546;BME280;52177;55.968;37.498;2023-08-06T02:38:12;100067.09;;;20.37;79.70
65546;BME280;52177;55.968;37.498;2023-08-06T02:38:42;100063.34;;;20.38;79.82
65546;BME280;52177;55.968;37.498;2023-08-06T02:39:12;100066.41;;;20.41;79.71
65546;BME280;52177;55.968;37.498;2023-08-06T02:39:43;100061.84;;;20.42;79.59
65546;BME280;52177;55.968;37.498;2023-08-06T02:40:13;100070.56;;;20.44;79.68
65546;BME280;52177;55.968;37.498;2023-08-06T02:40:44;100067.38;;;20.47;79.55
65546;BME280;52177;55.968;37.498;2023-08-06T02:41:15;100070.91;;;20.48;79.52
65546;BME280;52177;55.968;37.498;2023-08-06T02:41:45;100066.09;;;20.50;79.49
65546;BME280;52177;55.968;37.498;2023-08-06T02:42:16;100069.38;;;20.52;79.46
65546;BME280;52177;55.968;37.498;2023-08-06T02:42:46;100065.38;;;20.54;79.49
65546;BME280;52177;55.968;37.498;2023-08-06T02:43:16;100063.31;;;20.56;79.53
65546;BME280;52177;55.968;37.498;2023-08-06T02:43:47;100066.84;;;20.57;79.63
65546;BME280;52177;55.968;37.498;2023-08-06T02:44:17;100068.25;;;20.59;79.63
65546;BME280;52177;55.968;37.498;2023-08-06T02:44:47;100068.25;;;20.59;79.54
65546;BME280;52177;55.968;37.498;2023-08-06T02:45:18;100073.19;;;20.62;79.65
65546;BME280;52177;55.968;37.498;2023-08-06T02:45:48;100070.47;;;20.62;79.82
65546;BME280;52177;55.968;37.498;2023-08-06T02:46:18;100069.22;;;20.65;79.70
65546;BME280;52177;55.968;37.498;2023-08-06T02:46:49;100065.44;;;20.66;79.65
65546;BME280;52177;55.968;37.498;2023-08-06T02:47:19;100064.38;;;20.67;79.86